createdAt,value
2018-06-30T00:03:10.719Z,7.00
2018-06-30T00:07:14.157Z,7.35
2018-06-30T00:11:17.824Z,7.20
2018-06-30T00:15:21.285Z,7.45
2018-06-30T00:19:24.765Z,6.95
2018-06-30T00:23:28.197Z,7.35
2018-06-30T00:27:31.605Z,7.72
2018-06-30T00:31:35.038Z,7.90
2018-06-30T00:35:38.502Z,7.17
2018-06-30T00:39:41.938Z,7.60
2018-06-30T00:43:45.393Z,8.10
2018-06-30T00:47:48.823Z,8.13
2018-06-30T00:51:52.223Z,8.30
2018-06-30T00:55:55.663Z,8.03
2018-06-30T00:59:59.250Z,8.53
2018-06-30T01:04:02.687Z,8.28
2018-06-30T01:08:06.678Z,8.50
2018-06-30T01:12:10.121Z,8.50
2018-06-30T01:16:13.582Z,7.83
2018-06-30T01:20:17.371Z,8.40
2018-06-30T01:24:20.807Z,8.77
2018-06-30T01:28:24.279Z,8.20
2018-06-30T01:32:27.790Z,8.40
2018-06-30T01:36:31.261Z,9.23
2018-06-30T01:40:34.706Z,8.70
2018-06-30T01:44:38.479Z,9.13
2018-06-30T01:48:41.868Z,8.07
2018-06-30T01:52:45.294Z,8.33
2018-06-30T01:56:48.710Z,8.63
2018-06-30T02:00:52.145Z,8.20
2018-06-30T02:04:55.597Z,8.40
2018-06-30T02:08:59.050Z,8.70
2018-06-30T02:13:02.558Z,8.20
2018-06-30T02:17:05.990Z,8.77
2018-06-30T02:21:09.419Z,8.47
2018-06-30T02:25:12.878Z,8.70
2018-06-30T02:29:16.334Z,8.90
2018-06-30T02:33:19.792Z,9.80
2018-06-30T02:37:23.225Z,8.93
2018-06-30T02:41:26.678Z,9.13
2018-06-30T02:45:30.166Z,9.27
2018-06-30T02:49:33.612Z,9.23
2018-06-30T02:53:37.085Z,8.97
2018-06-30T02:57:40.597Z,9.47
2018-06-30T03:01:44.096Z,9.60
2018-06-30T03:05:47.606Z,9.87
2018-06-30T03:09:51.012Z,9.33
2018-06-30T03:13:54.458Z,9.50
2018-06-30T03:17:57.881Z,9.90
2018-06-30T03:22:01.316Z,10.03
2018-06-30T03:26:04.741Z,9.83
2018-06-30T03:30:08.180Z,10.03
2018-06-30T03:34:11.585Z,10.53
2018-06-30T03:38:15.098Z,10.50
2018-06-30T03:42:18.545Z,10.57
2018-06-30T03:46:22.028Z,10.10
2018-06-30T03:50:25.412Z,10.40
2018-06-30T03:54:28.838Z,10.10
2018-06-30T03:58:32.283Z,10.20
2018-06-30T04:02:35.711Z,10.57
2018-06-30T04:06:39.174Z,10.07
2018-06-30T04:10:42.668Z,10.73
2018-06-30T04:14:46.267Z,10.60
2018-06-30T04:18:49.763Z,10.00
2018-06-30T04:22:53.261Z,10.67
2018-06-30T04:26:56.710Z,10.33
2018-06-30T04:31:00.961Z,9.83
2018-06-30T04:35:04.562Z,10.27
2018-06-30T04:39:09.113Z,10.80
2018-06-30T04:43:12.582Z,10.83
2018-06-30T04:47:16.022Z,10.67
2018-06-30T04:51:19.463Z,11.50
2018-06-30T04:55:22.897Z,10.87
2018-06-30T04:59:26.332Z,10.80
2018-06-30T05:03:29.798Z,11.20
2018-06-30T05:07:33.256Z,10.47
2018-06-30T05:11:36.704Z,10.20
2018-06-30T05:15:40.134Z,9.73
2018-06-30T05:19:43.545Z,9.40
2018-06-30T05:23:46.964Z,8.98
2018-06-30T05:27:50.385Z,7.93
2018-06-30T05:31:53.875Z,7.87
2018-06-30T05:35:57.350Z,8.33
2018-06-30T05:40:00.766Z,8.88
2018-06-30T05:44:04.309Z,8.70
2018-06-30T05:48:07.755Z,7.90
2018-06-30T05:52:11.168Z,7.87
2018-06-30T05:56:14.624Z,7.83
2018-06-30T06:00:18.074Z,7.97
2018-06-30T06:04:21.509Z,7.95
2018-06-30T06:08:24.937Z,8.13
2018-06-30T06:12:28.368Z,7.42
2018-06-30T06:16:32.057Z,7.85
2018-06-30T06:20:35.504Z,7.33
2018-06-30T06:24:38.952Z,8.10
2018-06-30T06:28:42.355Z,8.30
2018-06-30T06:32:45.802Z,8.93
2018-06-30T06:36:49.200Z,8.40
2018-06-30T06:40:52.622Z,8.75
2018-06-30T06:44:56.087Z,6.83
2018-06-30T06:48:59.576Z,5.85
2018-06-30T06:53:03.005Z,5.85
2018-06-30T06:57:06.438Z,5.53
2018-06-30T07:01:09.855Z,5.53
2018-06-30T07:05:13.284Z,5.35
2018-06-30T07:09:16.728Z,6.15
2018-06-30T07:13:20.204Z,6.30
2018-06-30T07:17:23.654Z,6.45
2018-06-30T07:21:27.333Z,5.87
2018-06-30T07:25:30.784Z,5.78
2018-06-30T07:29:34.223Z,5.80
2018-06-30T07:33:37.939Z,6.05
2018-06-30T07:37:41.403Z,5.22
2018-06-30T07:41:44.833Z,4.90
2018-06-30T07:45:48.647Z,4.83
2018-06-30T07:49:52.076Z,4.27
2018-06-30T07:53:55.547Z,4.03
2018-06-30T07:57:59.059Z,3.73
2018-06-30T08:02:06.275Z,3.70
2018-06-30T08:06:10.006Z,3.30
2018-06-30T08:10:13.505Z,3.20
2018-06-30T08:14:16.975Z,3.65
2018-06-30T08:18:20.388Z,3.77
2018-06-30T08:22:23.827Z,4.60
2018-06-30T08:26:27.274Z,4.60
2018-06-30T08:30:31.145Z,3.83
2018-06-30T08:34:34.653Z,3.50
2018-06-30T08:38:38.078Z,4.00
2018-06-30T08:42:41.773Z,3.97
2018-06-30T08:46:45.208Z,4.37
2018-06-30T08:50:48.670Z,3.93
2018-06-30T08:54:52.207Z,4.40
2018-06-30T08:58:55.730Z,4.00
2018-06-30T09:02:59.124Z,3.90
2018-06-30T09:07:02.535Z,3.10
2018-06-30T09:11:06.718Z,3.33
2018-06-30T09:15:11.096Z,3.35
2018-06-30T09:19:14.687Z,3.20
2018-06-30T09:23:18.159Z,2.90
2018-06-30T09:27:20.574Z,3.10
2018-06-30T09:31:24.624Z,3.30
2018-06-30T09:35:28.553Z,3.03
2018-06-30T09:39:32.095Z,2.85
2018-06-30T09:43:37.289Z,3.12
2018-06-30T09:47:41.008Z,3.05
2018-06-30T09:51:44.477Z,2.55
2018-06-30T09:55:47.865Z,3.08
2018-06-30T09:59:51.383Z,2.37
2018-06-30T10:03:54.800Z,2.98
2018-06-30T10:07:58.206Z,2.72
2018-06-30T10:12:01.586Z,2.60
2018-06-30T10:16:04.981Z,2.30
2018-06-30T10:20:08.428Z,2.22
2018-06-30T10:24:11.844Z,2.67
2018-06-30T10:28:15.277Z,2.35
2018-06-30T10:32:18.700Z,2.20
2018-06-30T10:36:22.250Z,2.00
2018-06-30T10:40:25.653Z,2.10
2018-06-30T10:44:29.071Z,2.20
2018-06-30T10:48:32.510Z,2.30
2018-06-30T10:52:35.979Z,2.00
2018-06-30T10:56:39.406Z,2.15
2018-06-30T11:00:43.127Z,2.22
2018-06-30T11:04:46.554Z,1.85
2018-06-30T11:08:49.994Z,1.87
2018-06-30T11:12:53.438Z,1.50
2018-06-30T11:16:56.992Z,1.75
2018-06-30T11:21:00.523Z,1.62
2018-06-30T11:25:04.067Z,1.30
2018-06-30T11:29:07.435Z,1.30
2018-06-30T11:33:10.861Z,1.20
2018-06-30T11:37:14.259Z,1.35
2018-06-30T11:41:17.716Z,1.20
2018-06-30T11:45:21.164Z,1.60
2018-06-30T11:49:24.571Z,1.40
2018-06-30T11:53:28.019Z,1.30
2018-06-30T11:57:31.436Z,1.10
2018-06-30T12:01:34.862Z,1.10
2018-06-30T12:05:38.354Z,1.00
2018-06-30T12:09:41.796Z,0.93
2018-06-30T12:13:45.221Z,1.40
2018-06-30T12:17:48.674Z,1.10
2018-06-30T12:21:52.130Z,1.00
2018-06-30T12:25:55.528Z,0.95
2018-06-30T12:29:58.987Z,1.00
2018-06-30T12:34:03.285Z,0.90
2018-06-30T12:38:07.140Z,0.80
2018-06-30T12:42:10.574Z,0.98
2018-06-30T12:46:13.983Z,0.90
2018-06-30T12:50:17.417Z,0.75
2018-06-30T12:54:20.871Z,1.00
2018-06-30T12:58:24.938Z,0.72
2018-06-30T13:02:33.774Z,0.78
2018-06-30T13:06:37.309Z,1.05
2018-06-30T13:10:40.707Z,0.80
2018-06-30T13:14:44.124Z,0.80
2018-06-30T13:18:48.118Z,0.88
2018-06-30T13:22:52.050Z,1.00
2018-06-30T13:26:55.474Z,0.80
2018-06-30T13:30:58.900Z,0.80
2018-06-30T13:35:02.305Z,0.95
2018-06-30T13:39:10.159Z,1.27
2018-06-30T13:43:13.588Z,0.85
2018-06-30T13:47:17.002Z,0.90
2018-06-30T13:51:20.448Z,0.90
2018-06-30T13:55:23.979Z,0.82
2018-06-30T13:59:27.395Z,0.90
2018-06-30T14:03:30.814Z,0.80
2018-06-30T14:07:34.282Z,0.70
2018-06-30T14:11:37.690Z,1.10
2018-06-30T14:15:41.150Z,0.90
2018-06-30T14:19:44.574Z,0.90
2018-06-30T14:23:48.238Z,0.70
2018-06-30T14:27:51.638Z,0.80
2018-06-30T14:31:55.400Z,0.75
2018-06-30T14:35:59.299Z,0.80
2018-06-30T14:40:02.722Z,0.80
2018-06-30T14:44:06.936Z,0.85
2018-06-30T14:48:10.372Z,0.90
2018-06-30T14:52:13.734Z,0.80
2018-06-30T14:56:17.128Z,0.80
2018-06-30T15:00:20.535Z,0.80
2018-06-30T15:04:23.959Z,0.88
2018-06-30T15:08:27.402Z,0.75
2018-06-30T15:12:31.044Z,1.00
2018-06-30T15:16:34.474Z,0.88
2018-06-30T15:20:37.886Z,0.95
2018-06-30T15:24:41.301Z,1.00
2018-06-30T15:28:44.777Z,0.70
2018-06-30T15:32:48.873Z,1.00
2018-06-30T15:36:52.422Z,0.78
2018-06-30T15:40:55.840Z,0.75
2018-06-30T15:45:00.424Z,0.80
2018-06-30T15:49:03.880Z,1.00
2018-06-30T15:53:07.278Z,1.00
2018-06-30T15:57:10.728Z,0.80
2018-06-30T16:01:14.154Z,0.90
2018-06-30T16:05:17.589Z,1.10
2018-06-30T16:09:21.047Z,0.95
2018-06-30T16:13:24.455Z,0.90
2018-06-30T16:17:27.884Z,0.90
2018-06-30T16:21:31.489Z,1.00
2018-06-30T16:25:35.101Z,0.80
2018-06-30T16:29:38.534Z,0.90
2018-06-30T16:33:42.224Z,0.90
2018-06-30T16:37:45.657Z,0.80
2018-06-30T16:41:49.064Z,1.03
2018-06-30T16:45:52.523Z,1.00
2018-06-30T16:49:56.007Z,1.00
2018-06-30T16:53:59.440Z,0.90
2018-06-30T16:58:02.884Z,0.80
2018-06-30T17:02:06.539Z,1.00
2018-06-30T17:06:10.024Z,0.80
2018-06-30T17:10:13.398Z,0.83
2018-06-30T17:14:16.970Z,0.90
2018-06-30T17:18:20.371Z,0.90
2018-06-30T17:22:23.811Z,0.90
2018-06-30T17:26:27.510Z,1.10
2018-06-30T17:30:30.916Z,0.80
2018-06-30T17:34:39.159Z,0.83
2018-06-30T17:38:42.634Z,0.97
2018-06-30T17:42:46.077Z,0.90
2018-06-30T17:46:49.459Z,0.83
2018-06-30T17:50:52.950Z,0.90
2018-06-30T17:54:58.786Z,0.93
2018-06-30T17:59:03.303Z,0.73
2018-06-30T18:03:06.951Z,0.90
2018-06-30T18:07:10.508Z,0.90
2018-06-30T18:11:13.930Z,0.87
2018-06-30T18:15:17.371Z,0.90
2018-06-30T18:19:20.792Z,0.90
2018-06-30T18:23:24.194Z,0.70
2018-06-30T18:27:30.968Z,0.90
2018-06-30T18:31:34.549Z,0.90
2018-06-30T18:35:38.077Z,0.70
2018-06-30T18:39:41.634Z,1.07
2018-06-30T18:43:45.069Z,0.93
2018-06-30T18:47:48.503Z,1.10
2018-06-30T18:51:51.933Z,0.80
2018-06-30T18:55:55.334Z,0.80
2018-06-30T18:59:58.751Z,0.80
2018-06-30T19:04:02.604Z,0.87
2018-06-30T19:08:06.876Z,1.00
2018-06-30T19:12:10.503Z,1.13
2018-06-30T19:16:13.916Z,0.80
2018-06-30T19:20:17.271Z,0.83
2018-06-30T19:24:20.832Z,1.10
2018-06-30T19:28:24.649Z,1.17
2018-06-30T19:32:28.068Z,1.37
2018-06-30T19:36:31.571Z,1.03
2018-06-30T19:40:35.361Z,1.20
2018-06-30T19:44:38.790Z,0.90
2018-06-30T19:48:42.202Z,1.20
2018-06-30T19:52:45.709Z,1.20
2018-06-30T19:56:49.409Z,1.10
2018-06-30T20:00:52.842Z,1.00
2018-06-30T20:04:57.394Z,1.10
2018-06-30T20:09:00.809Z,1.20
2018-06-30T20:13:04.223Z,1.27
2018-06-30T20:17:07.666Z,1.10
2018-06-30T20:21:11.297Z,1.30
2018-06-30T20:25:14.746Z,1.00
2018-06-30T20:29:18.187Z,1.27
2018-06-30T20:33:29.873Z,1.07
2018-06-30T20:37:33.944Z,1.10
2018-06-30T20:41:38.965Z,0.90
2018-06-30T20:45:43.056Z,1.10
2018-06-30T20:49:46.546Z,1.10
2018-06-30T20:53:50.127Z,1.00
2018-06-30T20:57:53.583Z,1.20
2018-06-30T21:01:57.005Z,1.20
2018-06-30T21:06:00.455Z,1.00
2018-06-30T21:10:04.448Z,1.10
2018-06-30T21:14:07.922Z,1.00
2018-06-30T21:18:11.405Z,1.23
2018-06-30T21:22:14.817Z,1.10
2018-06-30T21:26:18.245Z,1.00
2018-06-30T21:30:21.738Z,1.13
2018-06-30T21:34:25.316Z,1.27
2018-06-30T21:38:28.709Z,1.27
2018-06-30T21:42:32.253Z,1.17
2018-06-30T21:46:35.984Z,1.10
2018-06-30T21:50:39.879Z,1.30
2018-06-30T21:54:43.294Z,1.20
2018-06-30T21:58:46.710Z,1.20
2018-06-30T22:02:50.153Z,1.43
2018-06-30T22:06:53.594Z,1.37
2018-06-30T22:10:57.101Z,1.63
2018-06-30T22:15:01.426Z,1.50
2018-06-30T22:19:04.871Z,1.60
2018-06-30T22:23:08.282Z,1.50
2018-06-30T22:27:11.688Z,1.40
2018-06-30T22:31:15.090Z,1.30
2018-06-30T22:35:18.484Z,1.23
2018-06-30T22:39:33.072Z,1.23
2018-06-30T22:43:37.273Z,1.00
2018-06-30T22:47:40.680Z,1.40
2018-06-30T22:51:44.147Z,1.30
2018-06-30T22:55:47.574Z,1.30
2018-06-30T22:59:51.013Z,1.20
2018-06-30T23:03:54.806Z,1.23
2018-06-30T23:07:58.317Z,1.17
2018-06-30T23:12:01.709Z,1.40
2018-06-30T23:16:05.323Z,1.00
2018-06-30T23:20:09.329Z,1.20
2018-06-30T23:24:12.749Z,1.30
2018-06-30T23:28:16.443Z,1.30
2018-06-30T23:32:19.867Z,1.00
2018-06-30T23:36:23.292Z,1.30
2018-06-30T23:40:26.681Z,1.30
2018-06-30T23:44:30.133Z,1.20
2018-06-30T23:48:33.650Z,1.40
2018-06-30T23:52:37.425Z,1.30
2018-06-30T23:56:40.848Z,1.17
